9C3211 ZSPD-ZYTL
Flight info
| Callsign | 9C3211 |
|---|---|
| Flight time | 1h 34m |
| Altitude | 33100 |
| Route | ODULO B221 XDX/K0839S1010 DCT URBAD W172 IGDEG W173 NIXEP |
| Aircraft | A21N/M-SDE3FGHIRWY/LB1 |
Departure
| Time | 2026-05-07 15:16 |
|---|---|
| Airport | Shanghai Pudong International Airport (ZSPD) |
Arrival
| Time | 2026-05-07 16:50 |
|---|---|
| Airport | Dalian Zhoushuizi International Airport (ZYTL) |
| Time | Latitude | Longitude | Altitude | Speed | Heading |
|---|---|---|---|---|---|
| 2026-05-07 14:47 | 31.13896 | 121.80329 | 22 ft | 0 kts | 251° |
| 2026-05-07 15:03 | 31.13897 | 121.80332 | 22 ft | 2 kts | 252° |
| 2026-05-07 15:03 | 31.13902 | 121.80349 | 22 ft | 2 kts | 251° |
| 2026-05-07 15:04 | 31.13907 | 121.80365 | 22 ft | 2 kts | 251° |
| 2026-05-07 15:04 | 31.13908 | 121.80383 | 22 ft | 2 kts | 286° |
| 2026-05-07 15:04 | 31.13901 | 121.80398 | 22 ft | 2 kts | 313° |
| 2026-05-07 15:04 | 31.13890 | 121.80408 | 22 ft | 0 kts | 338° |
| 2026-05-07 15:05 | 31.13884 | 121.80410 | 22 ft | 1 kts | 343° |
| 2026-05-07 15:05 | 31.13882 | 121.80410 | 22 ft | 0 kts | 342° |
| 2026-05-07 15:07 | 31.13883 | 121.80410 | 22 ft | 0 kts | 342° |
| 2026-05-07 15:07 | 31.13892 | 121.80407 | 22 ft | 3 kts | 341° |
| 2026-05-07 15:08 | 31.13931 | 121.80391 | 22 ft | 8 kts | 342° |
| 2026-05-07 15:08 | 31.13997 | 121.80367 | 22 ft | 10 kts | 342° |
| 2026-05-07 15:08 | 31.14067 | 121.80341 | 22 ft | 10 kts | 340° |
| 2026-05-07 15:08 | 31.14103 | 121.80276 | 22 ft | 10 kts | 263° |
| 2026-05-07 15:09 | 31.14081 | 121.80196 | 22 ft | 10 kts | 251° |
| 2026-05-07 15:09 | 31.14058 | 121.80115 | 22 ft | 10 kts | 252° |
| 2026-05-07 15:09 | 31.14036 | 121.80032 | 22 ft | 11 kts | 252° |
| 2026-05-07 15:09 | 31.14011 | 121.79943 | 22 ft | 12 kts | 252° |
| 2026-05-07 15:10 | 31.13984 | 121.79847 | 22 ft | 12 kts | 252° |
| 2026-05-07 15:10 | 31.13935 | 121.79766 | 22 ft | 13 kts | 190° |
| 2026-05-07 15:10 | 31.13840 | 121.79792 | 21 ft | 14 kts | 160° |
| 2026-05-07 15:10 | 31.13743 | 121.79829 | 22 ft | 14 kts | 162° |
| 2026-05-07 15:11 | 31.13644 | 121.79866 | 22 ft | 15 kts | 162° |
| 2026-05-07 15:11 | 31.13543 | 121.79904 | 22 ft | 15 kts | 162° |
| 2026-05-07 15:11 | 31.13440 | 121.79944 | 22 ft | 15 kts | 161° |
| 2026-05-07 15:11 | 31.13336 | 121.79984 | 22 ft | 15 kts | 162° |
| 2026-05-07 15:12 | 31.13231 | 121.80022 | 22 ft | 15 kts | 162° |
| 2026-05-07 15:12 | 31.13125 | 121.80062 | 22 ft | 16 kts | 162° |
| 2026-05-07 15:12 | 31.13018 | 121.80103 | 22 ft | 16 kts | 162° |
| 2026-05-07 15:12 | 31.12911 | 121.80144 | 22 ft | 16 kts | 162° |
| 2026-05-07 15:13 | 31.12817 | 121.80175 | 22 ft | 10 kts | 179° |
| 2026-05-07 15:13 | 31.12768 | 121.80132 | 22 ft | 6 kts | 252° |
| 2026-05-07 15:13 | 31.12754 | 121.80077 | 22 ft | 7 kts | 253° |
| 2026-05-07 15:13 | 31.12737 | 121.80017 | 22 ft | 8 kts | 251° |
| 2026-05-07 15:14 | 31.12731 | 121.79996 | 22 ft | 1 kts | 251° |
| 2026-05-07 15:14 | 31.12722 | 121.79965 | 22 ft | 7 kts | 252° |
| 2026-05-07 15:14 | 31.12725 | 121.79893 | 22 ft | 8 kts | 306° |
| 2026-05-07 15:14 | 31.12778 | 121.79864 | 22 ft | 8 kts | 345° |
| 2026-05-07 15:15 | 31.12838 | 121.79842 | 22 ft | 9 kts | 341° |
| 2026-05-07 15:15 | 31.12916 | 121.79812 | 22 ft | 21 kts | 342° |
| 2026-05-07 15:15 | 31.13263 | 121.79681 | 22 ft | 82 kts | 342° |
| 2026-05-07 15:15 | 31.13987 | 121.79406 | 22 ft | 133 kts | 343° |
| 2026-05-07 15:16 | 31.14998 | 121.79016 | 99 ft | 166 kts | 344° |
| 2026-05-07 15:16 | 31.16105 | 121.78588 | 554 ft | 168 kts | 345° |
| 2026-05-07 15:16 | 31.17191 | 121.78143 | 1228 ft | 165 kts | 346° |
| 2026-05-07 15:16 | 31.18253 | 121.77710 | 1853 ft | 161 kts | 348° |
| 2026-05-07 15:17 | 31.19354 | 121.77275 | 2142 ft | 173 kts | 347° |
| 2026-05-07 15:17 | 31.20542 | 121.76809 | 2408 ft | 186 kts | 346° |
| 2026-05-07 15:17 | 31.21820 | 121.76301 | 2658 ft | 202 kts | 345° |
| 2026-05-07 15:17 | 31.23214 | 121.75741 | 2894 ft | 220 kts | 344° |
| 2026-05-07 15:18 | 31.24698 | 121.75140 | 3338 ft | 229 kts | 343° |
| 2026-05-07 15:18 | 31.26212 | 121.74523 | 3927 ft | 233 kts | 342° |
| 2026-05-07 15:18 | 31.27762 | 121.73891 | 4396 ft | 243 kts | 342° |
| 2026-05-07 15:18 | 31.29393 | 121.73228 | 4858 ft | 253 kts | 341° |
| 2026-05-07 15:19 | 31.31062 | 121.72550 | 5508 ft | 256 kts | 341° |
| 2026-05-07 15:19 | 31.32751 | 121.71863 | 6150 ft | 260 kts | 340° |
| 2026-05-07 15:19 | 31.34471 | 121.71165 | 6778 ft | 264 kts | 340° |
| 2026-05-07 15:19 | 31.36223 | 121.70491 | 7449 ft | 267 kts | 341° |
| 2026-05-07 15:20 | 31.37990 | 121.69812 | 8142 ft | 268 kts | 340° |
| 2026-05-07 15:20 | 31.39768 | 121.69130 | 8816 ft | 270 kts | 340° |
| 2026-05-07 15:20 | 31.41569 | 121.68441 | 9448 ft | 273 kts | 340° |
| 2026-05-07 15:20 | 31.43382 | 121.67748 | 10061 ft | 276 kts | 339° |
| 2026-05-07 15:21 | 31.45221 | 121.67045 | 10542 ft | 283 kts | 339° |
| 2026-05-07 15:21 | 31.47141 | 121.66310 | 10801 ft | 297 kts | 339° |
| 2026-05-07 15:21 | 31.49162 | 121.65533 | 11070 ft | 312 kts | 339° |
| 2026-05-07 15:21 | 31.51277 | 121.64726 | 11318 ft | 326 kts | 339° |
| 2026-05-07 15:22 | 31.53503 | 121.64006 | 11633 ft | 340 kts | 348° |
| 2026-05-07 15:22 | 31.55895 | 121.63999 | 12127 ft | 350 kts | 4° |
| 2026-05-07 15:22 | 31.58264 | 121.64776 | 12677 ft | 358 kts | 16° |
| 2026-05-07 15:22 | 31.60597 | 121.65848 | 13183 ft | 362 kts | 17° |
| 2026-05-07 15:23 | 31.62948 | 121.66962 | 13660 ft | 367 kts | 17° |
| 2026-05-07 15:23 | 31.65324 | 121.68084 | 14120 ft | 370 kts | 17° |
| 2026-05-07 15:23 | 31.67726 | 121.69207 | 14586 ft | 374 kts | 17° |
| 2026-05-07 15:23 | 31.70161 | 121.70341 | 15022 ft | 379 kts | 17° |
| 2026-05-07 15:24 | 31.72621 | 121.71482 | 15447 ft | 383 kts | 17° |
| 2026-05-07 15:24 | 31.75105 | 121.72636 | 15876 ft | 386 kts | 16° |
| 2026-05-07 15:24 | 31.77617 | 121.73802 | 16301 ft | 390 kts | 16° |
| 2026-05-07 15:24 | 31.80148 | 121.74977 | 16717 ft | 393 kts | 16° |
| 2026-05-07 15:25 | 31.82701 | 121.76162 | 17109 ft | 397 kts | 16° |
| 2026-05-07 15:25 | 31.85282 | 121.77328 | 17499 ft | 398 kts | 12° |
| 2026-05-07 15:25 | 31.87959 | 121.78056 | 17865 ft | 393 kts | 1° |
| 2026-05-07 15:25 | 31.90662 | 121.78188 | 18259 ft | 387 kts | 351° |
| 2026-05-07 15:26 | 31.93338 | 121.77925 | 18664 ft | 386 kts | 347° |
| 2026-05-07 15:26 | 31.96013 | 121.77592 | 19057 ft | 388 kts | 347° |
| 2026-05-07 15:26 | 31.98700 | 121.77250 | 19423 ft | 390 kts | 347° |
| 2026-05-07 15:26 | 32.01405 | 121.76912 | 19799 ft | 392 kts | 347° |
| 2026-05-07 15:27 | 32.04121 | 121.76578 | 20154 ft | 394 kts | 347° |
| 2026-05-07 15:27 | 32.06846 | 121.76248 | 20545 ft | 394 kts | 347° |
| 2026-05-07 15:27 | 32.09578 | 121.75923 | 20900 ft | 396 kts | 347° |
| 2026-05-07 15:27 | 32.12321 | 121.75595 | 21246 ft | 397 kts | 347° |
| 2026-05-07 15:28 | 32.15073 | 121.75268 | 21592 ft | 398 kts | 347° |
| 2026-05-07 15:28 | 32.17834 | 121.74939 | 21910 ft | 399 kts | 347° |
| 2026-05-07 15:28 | 32.20599 | 121.74611 | 22223 ft | 401 kts | 347° |
| 2026-05-07 15:28 | 32.23381 | 121.74281 | 22522 ft | 402 kts | 346° |
| 2026-05-07 15:29 | 32.26174 | 121.73949 | 22796 ft | 405 kts | 346° |
| 2026-05-07 15:29 | 32.28980 | 121.73614 | 23120 ft | 406 kts | 346° |
| 2026-05-07 15:29 | 32.31786 | 121.73281 | 23424 ft | 407 kts | 346° |
| 2026-05-07 15:29 | 32.34610 | 121.72945 | 23720 ft | 408 kts | 346° |
| 2026-05-07 15:30 | 32.37439 | 121.72609 | 24041 ft | 409 kts | 346° |
| 2026-05-07 15:30 | 32.40275 | 121.72272 | 24339 ft | 411 kts | 346° |
| 2026-05-07 15:30 | 32.43126 | 121.71932 | 24625 ft | 413 kts | 346° |
| 2026-05-07 15:30 | 32.45987 | 121.71591 | 24929 ft | 414 kts | 346° |
| 2026-05-07 15:31 | 32.48855 | 121.71248 | 25223 ft | 415 kts | 346° |
| 2026-05-07 15:31 | 32.51738 | 121.70904 | 25495 ft | 417 kts | 346° |
| 2026-05-07 15:31 | 32.54628 | 121.70557 | 25764 ft | 418 kts | 346° |
| 2026-05-07 15:31 | 32.57531 | 121.70210 | 26027 ft | 420 kts | 346° |
| 2026-05-07 15:32 | 32.60442 | 121.69861 | 26284 ft | 421 kts | 346° |
| 2026-05-07 15:32 | 32.63363 | 121.69512 | 26542 ft | 423 kts | 346° |
| 2026-05-07 15:32 | 32.66297 | 121.69161 | 26797 ft | 424 kts | 346° |
| 2026-05-07 15:32 | 32.69236 | 121.68808 | 27030 ft | 426 kts | 346° |
| 2026-05-07 15:33 | 32.72185 | 121.68455 | 27267 ft | 427 kts | 346° |
| 2026-05-07 15:33 | 32.75150 | 121.68099 | 27465 ft | 429 kts | 346° |
| 2026-05-07 15:33 | 32.78126 | 121.67741 | 27674 ft | 431 kts | 346° |
| 2026-05-07 15:33 | 32.81116 | 121.67381 | 27906 ft | 432 kts | 346° |
| 2026-05-07 15:34 | 32.84111 | 121.67022 | 28125 ft | 434 kts | 346° |
| 2026-05-07 15:34 | 32.87116 | 121.66659 | 28346 ft | 435 kts | 346° |
| 2026-05-07 15:34 | 32.90127 | 121.66299 | 28582 ft | 436 kts | 346° |
| 2026-05-07 15:34 | 32.93149 | 121.65934 | 28784 ft | 437 kts | 345° |
| 2026-05-07 15:35 | 32.96178 | 121.65569 | 28986 ft | 439 kts | 345° |
| 2026-05-07 15:35 | 32.99216 | 121.65201 | 29189 ft | 440 kts | 345° |
| 2026-05-07 15:35 | 33.02259 | 121.64835 | 29443 ft | 440 kts | 345° |
| 2026-05-07 15:35 | 33.05302 | 121.64467 | 29734 ft | 439 kts | 345° |
| 2026-05-07 15:36 | 33.08327 | 121.64103 | 30082 ft | 437 kts | 345° |
| 2026-05-07 15:36 | 33.11351 | 121.63738 | 30386 ft | 436 kts | 345° |
| 2026-05-07 15:36 | 33.14370 | 121.63372 | 30675 ft | 435 kts | 345° |
| 2026-05-07 15:36 | 33.17372 | 121.63004 | 30949 ft | 434 kts | 344° |
| 2026-05-07 15:37 | 33.20343 | 121.62514 | 31208 ft | 429 kts | 341° |
| 2026-05-07 15:37 | 33.23262 | 121.61840 | 31465 ft | 425 kts | 338° |
| 2026-05-07 15:37 | 33.26116 | 121.60990 | 31709 ft | 421 kts | 335° |
| 2026-05-07 15:37 | 33.28907 | 121.59961 | 31942 ft | 417 kts | 332° |
| 2026-05-07 15:38 | 33.31616 | 121.58770 | 32179 ft | 414 kts | 329° |
| 2026-05-07 15:38 | 33.34263 | 121.57450 | 32389 ft | 412 kts | 328° |
| 2026-05-07 15:38 | 33.36896 | 121.56099 | 32594 ft | 413 kts | 327° |
| 2026-05-07 15:38 | 33.39536 | 121.54737 | 32758 ft | 414 kts | 327° |
| 2026-05-07 15:39 | 33.42178 | 121.53371 | 32941 ft | 414 kts | 327° |
| 2026-05-07 15:39 | 33.44823 | 121.52008 | 33152 ft | 414 kts | 327° |
| 2026-05-07 15:39 | 33.50120 | 121.49272 | 33234 ft | 415 kts | 327° |
| 2026-05-07 15:40 | 33.55416 | 121.46538 | 33232 ft | 414 kts | 327° |
| 2026-05-07 15:40 | 33.60702 | 121.43801 | 33236 ft | 414 kts | 327° |
| 2026-05-07 15:41 | 33.65981 | 121.41068 | 33239 ft | 413 kts | 327° |
| 2026-05-07 15:41 | 33.71345 | 121.38452 | 33240 ft | 418 kts | 329° |
| 2026-05-07 15:42 | 33.76760 | 121.35922 | 33235 ft | 417 kts | 329° |
| 2026-05-07 15:42 | 33.82170 | 121.33378 | 33241 ft | 415 kts | 328° |
| 2026-05-07 15:43 | 33.87556 | 121.30835 | 33242 ft | 414 kts | 328° |
| 2026-05-07 15:43 | 33.92916 | 121.28294 | 33243 ft | 415 kts | 328° |
| 2026-05-07 15:44 | 33.98266 | 121.25754 | 33239 ft | 413 kts | 328° |
| 2026-05-07 15:44 | 34.03631 | 121.23202 | 33242 ft | 415 kts | 328° |
| 2026-05-07 15:45 | 34.08993 | 121.20648 | 33241 ft | 416 kts | 328° |
| 2026-05-07 15:45 | 34.14363 | 121.18086 | 33244 ft | 413 kts | 328° |
| 2026-05-07 15:46 | 34.22369 | 121.14263 | 33246 ft | 413 kts | 328° |
| 2026-05-07 15:47 | 34.27673 | 121.11724 | 33247 ft | 409 kts | 328° |
| 2026-05-07 15:47 | 34.32969 | 121.09185 | 33247 ft | 410 kts | 328° |
| 2026-05-07 15:48 | 34.38267 | 121.06644 | 33244 ft | 411 kts | 328° |
| 2026-05-07 15:48 | 34.43564 | 121.04098 | 33246 ft | 409 kts | 328° |
| 2026-05-07 15:49 | 34.48843 | 121.01559 | 33244 ft | 408 kts | 328° |
| 2026-05-07 15:49 | 34.54105 | 120.99021 | 33245 ft | 406 kts | 328° |
| 2026-05-07 15:50 | 34.59355 | 120.96487 | 33246 ft | 406 kts | 328° |
| 2026-05-07 15:50 | 34.64590 | 120.93958 | 33246 ft | 405 kts | 328° |
| 2026-05-07 15:51 | 34.69814 | 120.91430 | 33245 ft | 405 kts | 328° |
| 2026-05-07 15:51 | 34.75048 | 120.88894 | 33248 ft | 405 kts | 328° |
| 2026-05-07 15:52 | 34.80263 | 120.86364 | 33248 ft | 403 kts | 327° |
| 2026-05-07 15:52 | 34.85475 | 120.83832 | 33248 ft | 404 kts | 327° |
| 2026-05-07 15:53 | 34.90687 | 120.81294 | 33249 ft | 403 kts | 327° |
| 2026-05-07 15:53 | 34.95878 | 120.78765 | 33249 ft | 402 kts | 327° |
| 2026-05-07 15:54 | 35.01060 | 120.76236 | 33254 ft | 401 kts | 327° |
| 2026-05-07 15:54 | 35.06220 | 120.73714 | 33252 ft | 400 kts | 327° |
| 2026-05-07 15:55 | 35.11417 | 120.71169 | 33255 ft | 403 kts | 327° |
| 2026-05-07 15:55 | 35.16607 | 120.68630 | 33252 ft | 401 kts | 327° |
| 2026-05-07 15:56 | 35.21781 | 120.66125 | 33254 ft | 401 kts | 327° |
| 2026-05-07 15:56 | 35.26955 | 120.63612 | 33257 ft | 399 kts | 327° |
| 2026-05-07 15:57 | 35.32116 | 120.61103 | 33255 ft | 400 kts | 327° |
| 2026-05-07 15:57 | 35.37272 | 120.58589 | 33254 ft | 399 kts | 327° |
| 2026-05-07 15:58 | 35.42428 | 120.56093 | 33258 ft | 398 kts | 327° |
| 2026-05-07 15:58 | 35.47579 | 120.53607 | 33254 ft | 398 kts | 327° |
| 2026-05-07 15:59 | 35.52723 | 120.51109 | 33257 ft | 398 kts | 327° |
| 2026-05-07 15:59 | 35.57870 | 120.48601 | 33258 ft | 398 kts | 327° |
| 2026-05-07 16:00 | 35.63001 | 120.46098 | 33256 ft | 396 kts | 327° |
| 2026-05-07 16:00 | 35.68112 | 120.43599 | 33258 ft | 395 kts | 326° |
| 2026-05-07 16:01 | 35.73214 | 120.41100 | 33260 ft | 395 kts | 326° |
| 2026-05-07 16:01 | 35.78313 | 120.38601 | 33259 ft | 394 kts | 326° |
| 2026-05-07 16:02 | 35.83414 | 120.36092 | 33260 ft | 395 kts | 326° |
| 2026-05-07 16:02 | 35.88601 | 120.33739 | 33260 ft | 406 kts | 333° |
| 2026-05-07 16:02 | 35.91437 | 120.33164 | 33259 ft | 420 kts | 342° |
| 2026-05-07 16:03 | 35.94413 | 120.33162 | 33261 ft | 437 kts | 351° |
| 2026-05-07 16:03 | 35.97478 | 120.33795 | 33261 ft | 456 kts | 0° |
| 2026-05-07 16:03 | 36.00521 | 120.35129 | 33258 ft | 476 kts | 11° |
| 2026-05-07 16:03 | 36.03454 | 120.37223 | 33258 ft | 497 kts | 22° |
| 2026-05-07 16:04 | 36.06241 | 120.39802 | 33261 ft | 505 kts | 26° |
| 2026-05-07 16:04 | 36.11831 | 120.44906 | 33252 ft | 488 kts | 17° |
| 2026-05-07 16:04 | 36.14822 | 120.46737 | 33250 ft | 472 kts | 7° |
| 2026-05-07 16:05 | 36.17892 | 120.47953 | 33251 ft | 455 kts | 358° |
| 2026-05-07 16:05 | 36.20948 | 120.48587 | 33250 ft | 438 kts | 350° |
| 2026-05-07 16:05 | 36.23967 | 120.48830 | 33252 ft | 432 kts | 348° |
| 2026-05-07 16:06 | 36.29957 | 120.49121 | 33245 ft | 433 kts | 348° |
| 2026-05-07 16:06 | 36.36020 | 120.49954 | 33114 ft | 447 kts | 354° |
| 2026-05-07 16:06 | 36.39079 | 120.50699 | 32850 ft | 450 kts | 357° |
| 2026-05-07 16:07 | 36.42116 | 120.51665 | 32590 ft | 454 kts | 0° |
| 2026-05-07 16:07 | 36.45142 | 120.52849 | 32328 ft | 458 kts | 4° |
| 2026-05-07 16:07 | 36.48156 | 120.54116 | 32071 ft | 458 kts | 3° |
| 2026-05-07 16:07 | 36.51182 | 120.55261 | 31812 ft | 451 kts | 0° |
| 2026-05-07 16:08 | 36.54198 | 120.56204 | 31553 ft | 445 kts | 357° |
| 2026-05-07 16:08 | 36.57222 | 120.56930 | 31291 ft | 440 kts | 354° |
| 2026-05-07 16:08 | 36.60244 | 120.57494 | 31036 ft | 438 kts | 352° |
| 2026-05-07 16:08 | 36.63256 | 120.58017 | 30780 ft | 436 kts | 352° |
| 2026-05-07 16:09 | 36.66265 | 120.58530 | 30521 ft | 436 kts | 352° |
| 2026-05-07 16:09 | 36.69272 | 120.59043 | 30266 ft | 436 kts | 352° |
| 2026-05-07 16:09 | 36.72288 | 120.59558 | 30009 ft | 438 kts | 352° |
| 2026-05-07 16:09 | 36.75306 | 120.60081 | 29751 ft | 436 kts | 352° |
| 2026-05-07 16:10 | 36.78313 | 120.60601 | 29497 ft | 436 kts | 352° |
| 2026-05-07 16:10 | 36.81320 | 120.61121 | 29260 ft | 438 kts | 353° |
| 2026-05-07 16:10 | 36.84339 | 120.61641 | 29004 ft | 438 kts | 353° |
| 2026-05-07 16:10 | 36.87353 | 120.62167 | 28726 ft | 436 kts | 353° |
| 2026-05-07 16:11 | 36.90340 | 120.62690 | 28456 ft | 432 kts | 353° |
| 2026-05-07 16:11 | 36.93301 | 120.63209 | 28188 ft | 429 kts | 354° |
| 2026-05-07 16:11 | 36.96239 | 120.63743 | 27919 ft | 425 kts | 354° |
| 2026-05-07 16:11 | 36.99141 | 120.64288 | 27654 ft | 421 kts | 354° |
| 2026-05-07 16:12 | 37.02036 | 120.64829 | 27386 ft | 420 kts | 355° |
| 2026-05-07 16:12 | 37.04910 | 120.65365 | 27124 ft | 417 kts | 356° |
| 2026-05-07 16:12 | 37.07764 | 120.65898 | 26851 ft | 414 kts | 356° |
| 2026-05-07 16:12 | 37.10613 | 120.66432 | 26583 ft | 413 kts | 356° |
| 2026-05-07 16:13 | 37.13453 | 120.66960 | 26316 ft | 410 kts | 356° |
| 2026-05-07 16:13 | 37.16268 | 120.67487 | 26051 ft | 408 kts | 357° |
| 2026-05-07 16:13 | 37.19068 | 120.68012 | 25796 ft | 406 kts | 357° |
| 2026-05-07 16:13 | 37.21852 | 120.68532 | 25523 ft | 404 kts | 358° |
| 2026-05-07 16:14 | 37.24619 | 120.69050 | 25259 ft | 400 kts | 358° |
| 2026-05-07 16:14 | 37.27375 | 120.69569 | 24975 ft | 398 kts | 358° |
| 2026-05-07 16:14 | 37.30104 | 120.70081 | 24715 ft | 395 kts | 359° |
| 2026-05-07 16:14 | 37.32807 | 120.70589 | 24434 ft | 393 kts | 359° |
| 2026-05-07 16:15 | 37.35505 | 120.71096 | 24169 ft | 390 kts | 359° |
| 2026-05-07 16:15 | 37.38183 | 120.71600 | 23917 ft | 388 kts | 360° |
| 2026-05-07 16:15 | 37.40839 | 120.72098 | 23636 ft | 385 kts | 0° |
| 2026-05-07 16:15 | 37.43475 | 120.72595 | 23350 ft | 382 kts | 0° |
| 2026-05-07 16:16 | 37.46093 | 120.73090 | 23079 ft | 380 kts | 0° |
| 2026-05-07 16:16 | 37.48697 | 120.73582 | 22793 ft | 378 kts | 1° |
| 2026-05-07 16:16 | 37.51296 | 120.74073 | 22499 ft | 378 kts | 1° |
| 2026-05-07 16:16 | 37.53893 | 120.74563 | 22219 ft | 376 kts | 1° |
| 2026-05-07 16:17 | 37.56474 | 120.75052 | 21939 ft | 374 kts | 1° |
| 2026-05-07 16:17 | 37.59038 | 120.75491 | 21644 ft | 370 kts | 359° |
| 2026-05-07 16:17 | 37.61587 | 120.75818 | 21354 ft | 366 kts | 359° |
| 2026-05-07 16:17 | 37.64126 | 120.76122 | 21062 ft | 365 kts | 359° |
| 2026-05-07 16:18 | 37.66649 | 120.76421 | 20769 ft | 362 kts | 359° |
| 2026-05-07 16:18 | 37.69166 | 120.76719 | 20476 ft | 360 kts | 359° |
| 2026-05-07 16:18 | 37.71651 | 120.77013 | 20159 ft | 357 kts | 360° |
| 2026-05-07 16:18 | 37.74121 | 120.77307 | 19843 ft | 356 kts | 360° |
| 2026-05-07 16:19 | 37.76575 | 120.77601 | 19523 ft | 354 kts | 0° |
| 2026-05-07 16:19 | 37.79018 | 120.77892 | 19201 ft | 351 kts | 0° |
| 2026-05-07 16:19 | 37.81443 | 120.78182 | 18879 ft | 349 kts | 0° |
| 2026-05-07 16:19 | 37.83852 | 120.78472 | 18555 ft | 347 kts | 0° |
| 2026-05-07 16:20 | 37.86242 | 120.78759 | 18233 ft | 344 kts | 0° |
| 2026-05-07 16:20 | 37.88619 | 120.79045 | 17910 ft | 342 kts | 0° |
| 2026-05-07 16:20 | 37.90977 | 120.79328 | 17577 ft | 340 kts | 0° |
| 2026-05-07 16:20 | 37.93319 | 120.79611 | 17251 ft | 337 kts | 0° |
| 2026-05-07 16:21 | 37.95642 | 120.79890 | 16931 ft | 335 kts | 1° |
| 2026-05-07 16:21 | 37.97958 | 120.80246 | 16601 ft | 336 kts | 5° |
| 2026-05-07 16:21 | 38.00233 | 120.80951 | 16280 ft | 338 kts | 12° |
| 2026-05-07 16:21 | 38.02433 | 120.82013 | 15950 ft | 340 kts | 19° |
| 2026-05-07 16:22 | 38.04535 | 120.83409 | 15626 ft | 342 kts | 24° |
| 2026-05-07 16:22 | 38.06582 | 120.84926 | 15306 ft | 340 kts | 25° |
| 2026-05-07 16:22 | 38.08612 | 120.86456 | 14976 ft | 338 kts | 25° |
| 2026-05-07 16:22 | 38.10618 | 120.87972 | 14670 ft | 335 kts | 25° |
| 2026-05-07 16:23 | 38.12617 | 120.89478 | 14369 ft | 333 kts | 25° |
| 2026-05-07 16:23 | 38.14603 | 120.90974 | 14067 ft | 332 kts | 25° |
| 2026-05-07 16:23 | 38.16581 | 120.92463 | 13763 ft | 330 kts | 25° |
| 2026-05-07 16:23 | 38.18547 | 120.93945 | 13475 ft | 328 kts | 26° |
| 2026-05-07 16:24 | 38.20504 | 120.95421 | 13208 ft | 326 kts | 25° |
| 2026-05-07 16:24 | 38.22441 | 120.96902 | 12930 ft | 326 kts | 28° |
| 2026-05-07 16:24 | 38.24202 | 120.98741 | 12649 ft | 331 kts | 39° |
| 2026-05-07 16:24 | 38.25650 | 121.01041 | 12399 ft | 338 kts | 51° |
| 2026-05-07 16:25 | 38.26754 | 121.03703 | 12151 ft | 342 kts | 58° |
| 2026-05-07 16:25 | 38.27722 | 121.06458 | 11897 ft | 342 kts | 59° |
| 2026-05-07 16:25 | 38.28666 | 121.09216 | 11646 ft | 340 kts | 60° |
| 2026-05-07 16:25 | 38.29609 | 121.11966 | 11394 ft | 339 kts | 59° |
| 2026-05-07 16:26 | 38.30551 | 121.14703 | 11138 ft | 337 kts | 59° |
| 2026-05-07 16:26 | 38.31493 | 121.17432 | 10885 ft | 336 kts | 59° |
| 2026-05-07 16:26 | 38.32432 | 121.20145 | 10632 ft | 333 kts | 59° |
| 2026-05-07 16:26 | 38.33350 | 121.22806 | 10373 ft | 324 kts | 59° |
| 2026-05-07 16:27 | 38.34245 | 121.25400 | 10115 ft | 316 kts | 59° |
| 2026-05-07 16:27 | 38.35117 | 121.27927 | 9855 ft | 308 kts | 59° |
| 2026-05-07 16:27 | 38.35969 | 121.30388 | 9618 ft | 299 kts | 58° |
| 2026-05-07 16:27 | 38.36789 | 121.32767 | 9458 ft | 289 kts | 58° |
| 2026-05-07 16:28 | 38.37583 | 121.35068 | 9298 ft | 279 kts | 58° |
| 2026-05-07 16:28 | 38.38360 | 121.37314 | 9145 ft | 277 kts | 58° |
| 2026-05-07 16:28 | 38.39139 | 121.39559 | 8983 ft | 276 kts | 58° |
| 2026-05-07 16:28 | 38.39913 | 121.41796 | 8830 ft | 276 kts | 58° |
| 2026-05-07 16:29 | 38.40762 | 121.43970 | 8671 ft | 270 kts | 50° |
| 2026-05-07 16:29 | 38.41875 | 121.45851 | 8516 ft | 263 kts | 40° |
| 2026-05-07 16:29 | 38.43214 | 121.47401 | 8364 ft | 257 kts | 30° |
| 2026-05-07 16:29 | 38.44684 | 121.48677 | 8214 ft | 255 kts | 27° |
| 2026-05-07 16:30 | 38.46184 | 121.49911 | 8060 ft | 255 kts | 26° |
| 2026-05-07 16:30 | 38.47682 | 121.51138 | 7908 ft | 255 kts | 27° |
| 2026-05-07 16:30 | 38.49172 | 121.52366 | 7755 ft | 254 kts | 27° |
| 2026-05-07 16:30 | 38.50657 | 121.53594 | 7603 ft | 254 kts | 27° |
| 2026-05-07 16:31 | 38.52139 | 121.54822 | 7447 ft | 254 kts | 27° |
| 2026-05-07 16:31 | 38.53616 | 121.56048 | 7293 ft | 253 kts | 27° |
| 2026-05-07 16:31 | 38.55095 | 121.57277 | 7141 ft | 253 kts | 27° |
| 2026-05-07 16:31 | 38.56569 | 121.58502 | 6987 ft | 253 kts | 27° |
| 2026-05-07 16:32 | 38.58043 | 121.59728 | 6832 ft | 252 kts | 27° |
| 2026-05-07 16:32 | 38.59519 | 121.60914 | 6682 ft | 250 kts | 24° |
| 2026-05-07 16:32 | 38.61051 | 121.61952 | 6532 ft | 249 kts | 20° |
| 2026-05-07 16:32 | 38.62625 | 121.62893 | 6378 ft | 249 kts | 20° |
| 2026-05-07 16:33 | 38.64191 | 121.63819 | 6225 ft | 247 kts | 20° |
| 2026-05-07 16:33 | 38.65757 | 121.64745 | 6075 ft | 248 kts | 20° |
| 2026-05-07 16:33 | 38.67324 | 121.65671 | 5921 ft | 247 kts | 20° |
| 2026-05-07 16:33 | 38.68882 | 121.66594 | 5765 ft | 246 kts | 20° |
| 2026-05-07 16:34 | 38.70433 | 121.67512 | 5613 ft | 246 kts | 21° |
| 2026-05-07 16:34 | 38.71988 | 121.68431 | 5461 ft | 246 kts | 21° |
| 2026-05-07 16:34 | 38.73537 | 121.69349 | 5307 ft | 246 kts | 21° |
| 2026-05-07 16:34 | 38.75091 | 121.70270 | 5158 ft | 246 kts | 21° |
| 2026-05-07 16:35 | 38.76646 | 121.71193 | 5004 ft | 246 kts | 21° |
| 2026-05-07 16:35 | 38.78198 | 121.72114 | 4852 ft | 246 kts | 21° |
| 2026-05-07 16:35 | 38.79756 | 121.73038 | 4699 ft | 247 kts | 21° |
| 2026-05-07 16:35 | 38.81315 | 121.73964 | 4549 ft | 246 kts | 21° |
| 2026-05-07 16:36 | 38.82871 | 121.74889 | 4467 ft | 245 kts | 21° |
| 2026-05-07 16:36 | 38.84351 | 121.75876 | 4445 ft | 236 kts | 33° |
| 2026-05-07 16:36 | 38.85315 | 121.77568 | 4443 ft | 243 kts | 66° |
| 2026-05-07 16:36 | 38.85474 | 121.79762 | 4462 ft | 255 kts | 90° |
| 2026-05-07 16:37 | 38.85261 | 121.82020 | 4461 ft | 255 kts | 91° |
| 2026-05-07 16:37 | 38.85051 | 121.84271 | 4462 ft | 254 kts | 91° |
| 2026-05-07 16:37 | 38.84854 | 121.86523 | 4413 ft | 254 kts | 90° |
| 2026-05-07 16:37 | 38.84667 | 121.88768 | 4359 ft | 254 kts | 90° |
| 2026-05-07 16:38 | 38.84493 | 121.91019 | 4308 ft | 254 kts | 90° |
| 2026-05-07 16:38 | 38.84324 | 121.93265 | 4258 ft | 253 kts | 90° |
| 2026-05-07 16:38 | 38.84153 | 121.95515 | 4207 ft | 254 kts | 90° |
| 2026-05-07 16:38 | 38.83980 | 121.97776 | 4156 ft | 254 kts | 90° |
| 2026-05-07 16:39 | 38.83808 | 122.00039 | 4108 ft | 254 kts | 90° |
| 2026-05-07 16:39 | 38.83661 | 122.02285 | 4050 ft | 249 kts | 83° |
| 2026-05-07 16:39 | 38.84089 | 122.04272 | 3946 ft | 220 kts | 48° |
| 2026-05-07 16:39 | 38.85165 | 122.05526 | 3903 ft | 206 kts | 21° |
| 2026-05-07 16:40 | 38.86513 | 122.06007 | 3858 ft | 199 kts | 2° |
| 2026-05-07 16:40 | 38.87896 | 122.06160 | 3815 ft | 199 kts | 2° |
| 2026-05-07 16:40 | 38.89275 | 122.06316 | 3765 ft | 199 kts | 2° |
| 2026-05-07 16:40 | 38.90636 | 122.06182 | 3687 ft | 197 kts | 336° |
| 2026-05-07 16:41 | 38.91677 | 122.05044 | 3648 ft | 203 kts | 307° |
| 2026-05-07 16:41 | 38.92332 | 122.03430 | 3616 ft | 206 kts | 295° |
| 2026-05-07 16:41 | 38.92715 | 122.01642 | 3564 ft | 210 kts | 286° |
| 2026-05-07 16:41 | 38.92968 | 121.99794 | 3517 ft | 210 kts | 285° |
| 2026-05-07 16:42 | 38.93190 | 121.97935 | 3466 ft | 211 kts | 283° |
| 2026-05-07 16:42 | 38.93384 | 121.96073 | 3419 ft | 211 kts | 282° |
| 2026-05-07 16:42 | 38.93546 | 121.94271 | 3462 ft | 194 kts | 282° |
| 2026-05-07 16:42 | 38.93685 | 121.92576 | 3406 ft | 185 kts | 282° |
| 2026-05-07 16:43 | 38.93801 | 121.91023 | 3358 ft | 164 kts | 282° |
| 2026-05-07 16:43 | 38.93901 | 121.89638 | 3280 ft | 151 kts | 282° |
| 2026-05-07 16:43 | 38.94001 | 121.88287 | 3353 ft | 152 kts | 283° |
| 2026-05-07 16:43 | 38.94102 | 121.86936 | 3427 ft | 152 kts | 282° |
| 2026-05-07 16:44 | 38.94200 | 121.85578 | 3503 ft | 153 kts | 282° |
| 2026-05-07 16:44 | 38.94299 | 121.84210 | 3579 ft | 154 kts | 282° |
| 2026-05-07 16:44 | 38.94397 | 121.82837 | 3586 ft | 154 kts | 282° |
| 2026-05-07 16:44 | 38.94494 | 121.81465 | 3582 ft | 154 kts | 282° |
| 2026-05-07 16:45 | 38.94592 | 121.80093 | 3584 ft | 154 kts | 282° |
| 2026-05-07 16:45 | 38.94691 | 121.78725 | 3584 ft | 154 kts | 282° |
| 2026-05-07 16:45 | 38.94788 | 121.77372 | 3454 ft | 148 kts | 282° |
| 2026-05-07 16:45 | 38.94880 | 121.76087 | 3249 ft | 143 kts | 282° |
| 2026-05-07 16:46 | 38.94975 | 121.74819 | 3062 ft | 142 kts | 282° |
| 2026-05-07 16:46 | 38.95069 | 121.73557 | 2886 ft | 142 kts | 282° |
| 2026-05-07 16:46 | 38.95164 | 121.72297 | 2706 ft | 142 kts | 282° |
| 2026-05-07 16:46 | 38.95260 | 121.71039 | 2517 ft | 142 kts | 281° |
| 2026-05-07 16:47 | 38.95355 | 121.69780 | 2330 ft | 141 kts | 281° |
| 2026-05-07 16:47 | 38.95449 | 121.68527 | 2140 ft | 141 kts | 280° |
| 2026-05-07 16:47 | 38.95544 | 121.67278 | 1949 ft | 140 kts | 280° |
| 2026-05-07 16:47 | 38.95638 | 121.66033 | 1759 ft | 140 kts | 279° |
| 2026-05-07 16:48 | 38.95733 | 121.64792 | 1564 ft | 140 kts | 279° |
| 2026-05-07 16:48 | 38.95827 | 121.63553 | 1376 ft | 139 kts | 277° |
| 2026-05-07 16:48 | 38.95921 | 121.62315 | 1186 ft | 139 kts | 278° |
| 2026-05-07 16:48 | 38.96011 | 121.61080 | 992 ft | 139 kts | 276° |
| 2026-05-07 16:49 | 38.96107 | 121.59853 | 770 ft | 138 kts | 277° |
| 2026-05-07 16:49 | 38.96200 | 121.58631 | 579 ft | 137 kts | 275° |
| 2026-05-07 16:49 | 38.96293 | 121.57410 | 398 ft | 137 kts | 275° |
| 2026-05-07 16:49 | 38.96385 | 121.56195 | 259 ft | 137 kts | 275° |
| 2026-05-07 16:50 | 38.96480 | 121.54984 | 117 ft | 134 kts | 274° |
| 2026-05-07 16:50 | 38.96558 | 121.53950 | 113 ft | 93 kts | 276° |
| 2026-05-07 16:50 | 38.96607 | 121.53342 | 113 ft | 46 kts | 275° |
| 2026-05-07 16:50 | 38.96622 | 121.53084 | 113 ft | 23 kts | 270° |
| 2026-05-07 16:51 | 38.96592 | 121.52883 | 113 ft | 22 kts | 251° |
| 2026-05-07 16:51 | 38.96544 | 121.52738 | 113 ft | 10 kts | 245° |
| 2026-05-07 16:51 | 38.96512 | 121.52658 | 113 ft | 7 kts | 242° |
| 2026-05-07 16:51 | 38.96480 | 121.52635 | 113 ft | 4 kts | 155° |
| 2026-05-07 16:52 | 38.96461 | 121.52678 | 113 ft | 6 kts | 100° |
| 2026-05-07 16:52 | 38.96457 | 121.52739 | 113 ft | 7 kts | 94° |
| 2026-05-07 16:52 | 38.96451 | 121.52808 | 113 ft | 8 kts | 97° |
| 2026-05-07 16:52 | 38.96445 | 121.52886 | 113 ft | 9 kts | 96° |
| 2026-05-07 16:53 | 38.96437 | 121.52981 | 113 ft | 12 kts | 96° |
| 2026-05-07 16:53 | 38.96428 | 121.53098 | 113 ft | 14 kts | 96° |
| 2026-05-07 16:53 | 38.96424 | 121.53226 | 113 ft | 14 kts | 84° |
| 2026-05-07 16:53 | 38.96430 | 121.53356 | 113 ft | 14 kts | 93° |
| 2026-05-07 16:54 | 38.96421 | 121.53487 | 113 ft | 15 kts | 96° |
| 2026-05-07 16:54 | 38.96411 | 121.53622 | 113 ft | 15 kts | 96° |
| 2026-05-07 16:54 | 38.96393 | 121.53718 | 113 ft | 10 kts | 131° |
| 2026-05-07 16:54 | 38.96356 | 121.53731 | 113 ft | 5 kts | 180° |
| 2026-05-07 16:55 | 38.96311 | 121.53727 | 113 ft | 3 kts | 184° |
| 2026-05-07 16:55 | 38.96283 | 121.53726 | 113 ft | 4 kts | 184° |
| 2026-05-07 16:55 | 38.96253 | 121.53724 | 113 ft | 3 kts | 182° |
| 2026-05-07 16:55 | 38.96241 | 121.53724 | 113 ft | 0 kts | 182° |